createdAt,value
2023-02-09T00:00:25.247Z,4.80
2023-02-09T00:01:25.289Z,5.10
2023-02-09T00:02:25.355Z,5.40
2023-02-09T00:03:25.224Z,5.20
2023-02-09T00:04:25.232Z,5.30
2023-02-09T00:05:25.254Z,5.30
2023-02-09T00:06:25.185Z,5.60
2023-02-09T00:07:25.211Z,5.20
2023-02-09T00:08:31.847Z,5.20
2023-02-09T00:09:26.855Z,5.40
2023-02-09T00:10:25.866Z,4.40
2023-02-09T00:11:25.139Z,5.20
2023-02-09T00:12:25.136Z,5.40
2023-02-09T00:13:25.120Z,5.00
2023-02-09T00:14:25.123Z,5.60
2023-02-09T00:15:25.092Z,4.90
2023-02-09T00:16:25.116Z,4.40
2023-02-09T00:17:25.073Z,4.90
2023-02-09T00:18:25.091Z,5.50
2023-02-09T00:19:25.062Z,4.80
2023-02-09T00:20:25.047Z,4.90
2023-02-09T00:21:25.059Z,4.50
2023-02-09T00:22:25.964Z,5.30
2023-02-09T00:23:25.016Z,5.50
2023-02-09T00:24:25.016Z,5.80
2023-02-09T00:25:24.993Z,5.20
2023-02-09T00:26:24.982Z,5.00
2023-02-09T00:27:24.983Z,5.10
2023-02-09T00:28:25.020Z,5.50
2023-02-09T00:29:24.946Z,4.90
2023-02-09T00:30:24.952Z,4.90
2023-02-09T00:31:25.100Z,5.10
2023-02-09T00:32:25.109Z,5.20
2023-02-09T00:33:24.914Z,6.30
2023-02-09T00:34:24.901Z,4.70
2023-02-09T00:35:24.893Z,4.40
2023-02-09T00:36:24.903Z,4.50
2023-02-09T00:37:24.862Z,5.20
2023-02-09T00:38:24.906Z,4.70
2023-02-09T00:39:24.859Z,4.90
2023-02-09T00:40:24.840Z,4.70
2023-02-09T00:41:24.822Z,5.40
2023-02-09T00:42:24.823Z,5.10
2023-02-09T00:43:24.804Z,4.90
2023-02-09T00:44:24.805Z,5.00
2023-02-09T00:45:24.788Z,5.40
2023-02-09T00:46:24.782Z,5.20
2023-02-09T00:47:24.766Z,5.20
2023-02-09T00:48:24.776Z,5.50
2023-02-09T00:49:24.749Z,4.40
2023-02-09T00:50:24.753Z,5.30
2023-02-09T00:51:24.721Z,5.70
2023-02-09T00:52:24.717Z,5.30
2023-02-09T00:53:24.832Z,4.80
2023-02-09T00:54:24.715Z,5.00
2023-02-09T00:55:24.681Z,5.90
2023-02-09T00:56:24.692Z,5.50
2023-02-09T00:57:24.670Z,4.30
2023-02-09T00:58:24.683Z,5.80
2023-02-09T00:59:24.650Z,4.90
2023-02-09T01:00:24.644Z,5.00
2023-02-09T01:01:24.642Z,4.90
2023-02-09T01:02:24.626Z,5.30
2023-02-09T01:03:24.618Z,5.40
2023-02-09T01:04:24.631Z,4.90
2023-02-09T01:05:24.578Z,5.00
2023-02-09T01:06:24.586Z,4.90
2023-02-09T01:07:24.565Z,4.80
2023-02-09T01:08:24.602Z,4.70
2023-02-09T01:09:24.538Z,5.40
2023-02-09T01:10:24.571Z,4.90
2023-02-09T01:11:24.523Z,5.00
2023-02-09T01:12:24.535Z,5.30
2023-02-09T01:13:24.532Z,5.40
2023-02-09T01:14:24.498Z,5.00
2023-02-09T01:15:24.477Z,5.10
2023-02-09T01:16:24.530Z,4.60
2023-02-09T01:17:24.462Z,5.00
2023-02-09T01:18:24.486Z,5.00
2023-02-09T01:19:24.434Z,5.70
2023-02-09T01:20:24.439Z,5.00
2023-02-09T01:21:24.417Z,4.60
2023-02-09T01:22:24.409Z,5.40
2023-02-09T01:23:24.423Z,5.90
2023-02-09T01:24:24.403Z,4.70
2023-02-09T01:25:24.398Z,5.10
2023-02-09T01:26:24.380Z,5.40
2023-02-09T01:27:24.361Z,4.80
2023-02-09T01:28:24.434Z,5.10
2023-02-09T01:29:24.353Z,5.30
2023-02-09T01:30:24.328Z,5.10
2023-02-09T01:31:24.484Z,5.70
2023-02-09T01:32:24.315Z,5.10
2023-02-09T01:33:24.315Z,5.00
2023-02-09T01:34:24.286Z,5.30
2023-02-09T01:35:24.280Z,5.20
2023-02-09T01:36:24.270Z,5.60
2023-02-09T01:37:24.279Z,4.60
2023-02-09T01:38:24.278Z,5.70
2023-02-09T01:39:24.248Z,5.50
2023-02-09T01:40:24.228Z,4.80
2023-02-09T01:41:24.281Z,4.50
2023-02-09T01:42:24.218Z,4.30
2023-02-09T01:43:24.208Z,4.30
2023-02-09T01:44:24.227Z,5.30
2023-02-09T01:45:24.180Z,5.30
2023-02-09T01:46:24.230Z,5.90
2023-02-09T01:47:24.161Z,5.40
2023-02-09T01:48:24.163Z,4.80
2023-02-09T01:49:24.150Z,5.00
2023-02-09T01:50:24.136Z,5.10
2023-02-09T01:51:24.135Z,4.80
2023-02-09T01:52:24.114Z,5.00
2023-02-09T01:53:24.121Z,4.60
2023-02-09T01:54:24.089Z,4.70
2023-02-09T01:55:24.082Z,5.10
2023-02-09T01:56:24.088Z,5.30
2023-02-09T01:57:24.061Z,4.90
2023-02-09T01:58:24.074Z,4.90
2023-02-09T01:59:24.037Z,5.10
2023-02-09T02:00:24.054Z,5.10
2023-02-09T02:01:24.069Z,5.40
2023-02-09T02:02:24.066Z,4.90
2023-02-09T02:03:24.019Z,4.70
2023-02-09T02:04:23.996Z,4.80
2023-02-09T02:05:24.017Z,5.00
2023-02-09T02:06:23.998Z,5.10
2023-02-09T02:07:23.959Z,4.70
2023-02-09T02:08:23.969Z,4.90
2023-02-09T02:09:23.949Z,5.40
2023-02-09T02:10:23.954Z,5.00
2023-02-09T02:11:23.918Z,4.20
2023-02-09T02:12:23.916Z,4.50
2023-02-09T02:13:23.917Z,4.70
2023-02-09T02:14:23.906Z,4.80
2023-02-09T02:15:23.881Z,5.40
2023-02-09T02:16:23.880Z,4.80
2023-02-09T02:17:23.894Z,5.00
2023-02-09T02:18:23.869Z,5.10
2023-02-09T02:19:23.840Z,5.30
2023-02-09T02:20:23.845Z,5.30
2023-02-09T02:21:23.812Z,4.50
2023-02-09T02:22:23.811Z,4.60
2023-02-09T02:23:23.845Z,4.70
2023-02-09T02:24:23.802Z,4.60
2023-02-09T02:25:23.771Z,4.30
2023-02-09T02:26:23.768Z,4.70
2023-02-09T02:27:23.752Z,4.40
2023-02-09T02:28:23.852Z,4.80
2023-02-09T02:29:23.729Z,5.20
2023-02-09T02:30:23.778Z,4.40
2023-02-09T02:31:23.815Z,4.60
2023-02-09T02:32:23.725Z,4.90
2023-02-09T02:33:23.733Z,4.70
2023-02-09T02:34:23.693Z,4.80
2023-02-09T02:35:23.676Z,5.20
2023-02-09T02:36:23.663Z,4.90
2023-02-09T02:37:23.651Z,5.00
2023-02-09T02:38:23.667Z,5.20
2023-02-09T02:39:23.640Z,5.10
2023-02-09T02:40:23.644Z,5.60
2023-02-09T02:41:23.607Z,5.40
2023-02-09T02:42:23.609Z,4.50
2023-02-09T02:43:23.688Z,4.90
2023-02-09T02:44:23.617Z,5.00
2023-02-09T02:45:23.574Z,4.60
2023-02-09T02:46:23.615Z,4.90
2023-02-09T02:47:23.555Z,5.20
2023-02-09T02:48:23.590Z,4.50
2023-02-09T02:49:23.546Z,4.50
2023-02-09T02:50:23.560Z,4.90
2023-02-09T02:51:23.520Z,4.50
2023-02-09T02:52:23.545Z,5.60
2023-02-09T02:53:23.512Z,4.30
2023-02-09T02:54:23.493Z,5.10
2023-02-09T02:55:23.485Z,5.40
2023-02-09T02:56:23.492Z,4.60
2023-02-09T02:57:23.457Z,5.10
2023-02-09T02:58:23.486Z,4.50
2023-02-09T02:59:23.437Z,5.00
2023-02-09T03:00:23.434Z,5.70
2023-02-09T03:01:23.470Z,5.30
2023-02-09T03:02:23.471Z,5.00
2023-02-09T03:03:23.415Z,5.00
2023-02-09T03:04:23.399Z,4.80
2023-02-09T03:05:23.446Z,5.90
2023-02-09T03:06:23.431Z,4.60
2023-02-09T03:07:23.362Z,5.40
2023-02-09T03:08:23.373Z,4.20
2023-02-09T03:09:23.363Z,4.30
2023-02-09T03:10:23.332Z,5.70
2023-02-09T03:11:23.353Z,4.70
2023-02-09T03:12:23.317Z,4.60
2023-02-09T03:13:23.302Z,4.70
2023-02-09T03:14:23.298Z,4.70
2023-02-09T03:15:23.287Z,4.30
2023-02-09T03:16:23.355Z,4.70
2023-02-09T03:17:23.258Z,4.50
2023-02-09T03:18:23.285Z,4.50
2023-02-09T03:19:23.240Z,5.00
2023-02-09T03:20:23.242Z,5.40
2023-02-09T03:21:23.236Z,4.60
2023-02-09T03:22:23.249Z,4.40
2023-02-09T03:23:23.249Z,5.20
2023-02-09T03:24:23.197Z,4.70
2023-02-09T03:25:23.207Z,5.10
2023-02-09T03:26:23.186Z,4.00
2023-02-09T03:27:23.234Z,4.50
2023-02-09T03:28:23.190Z,4.10
2023-02-09T03:29:23.152Z,4.30
2023-02-09T03:30:23.198Z,5.50
2023-02-09T03:31:23.295Z,4.40
2023-02-09T03:32:23.120Z,5.20
2023-02-09T03:33:23.124Z,4.00
2023-02-09T03:34:23.121Z,4.80
2023-02-09T03:35:23.084Z,4.60
2023-02-09T03:36:23.156Z,4.90
2023-02-09T03:37:23.070Z,4.40
2023-02-09T03:38:23.077Z,4.20
2023-02-09T03:39:23.065Z,4.30
2023-02-09T03:40:23.049Z,4.30
2023-02-09T03:41:23.027Z,4.50
2023-02-09T03:42:23.051Z,4.00
2023-02-09T03:43:23.017Z,4.30
2023-02-09T03:44:22.996Z,4.70
2023-02-09T03:45:22.982Z,4.40
2023-02-09T03:46:23.050Z,4.30
2023-02-09T03:47:22.972Z,4.50
2023-02-09T03:48:23.006Z,4.00
2023-02-09T03:49:22.941Z,4.80
2023-02-09T03:50:22.943Z,4.70
2023-02-09T03:51:22.926Z,4.50
2023-02-09T03:52:22.923Z,4.30
2023-02-09T03:53:22.911Z,4.30
2023-02-09T03:54:22.904Z,4.70
2023-02-09T03:55:22.884Z,4.40
2023-02-09T03:56:22.873Z,4.60
2023-02-09T03:57:22.867Z,4.50
2023-02-09T03:58:22.870Z,4.20
2023-02-09T03:59:22.842Z,5.20
2023-02-09T04:00:22.837Z,3.80
2023-02-09T04:01:22.820Z,4.10
2023-02-09T04:02:22.844Z,4.90
2023-02-09T04:03:22.819Z,4.20
2023-02-09T04:04:22.802Z,4.60
2023-02-09T04:05:22.786Z,4.00
2023-02-09T04:06:22.770Z,4.50
2023-02-09T04:07:22.767Z,3.70
2023-02-09T04:08:22.765Z,4.80
2023-02-09T04:09:22.775Z,4.50
2023-02-09T04:10:22.758Z,4.30
2023-02-09T04:11:23.587Z,4.50
2023-02-09T04:12:22.720Z,4.50
2023-02-09T04:13:22.782Z,4.60
2023-02-09T04:14:22.690Z,4.20
2023-02-09T04:15:22.691Z,5.00
2023-02-09T04:16:22.723Z,4.90
2023-02-09T04:17:22.664Z,3.80
2023-02-09T04:18:22.652Z,4.70
2023-02-09T04:19:22.662Z,3.90
2023-02-09T04:20:22.624Z,4.80
2023-02-09T04:21:22.629Z,3.80
2023-02-09T04:22:22.619Z,4.50
2023-02-09T04:23:22.617Z,4.90
2023-02-09T04:24:22.597Z,4.40
2023-02-09T04:25:22.579Z,4.00
2023-02-09T04:26:22.570Z,4.50
2023-02-09T04:27:22.557Z,4.20
2023-02-09T04:28:22.610Z,5.00
2023-02-09T04:29:22.613Z,4.50
2023-02-09T04:30:22.551Z,4.50
2023-02-09T04:31:22.800Z,4.10
2023-02-09T04:32:22.530Z,4.60
2023-02-09T04:33:22.534Z,4.40
2023-02-09T04:34:22.500Z,4.40
2023-02-09T04:35:22.491Z,4.10
2023-02-09T04:36:22.469Z,4.10
2023-02-09T04:37:22.472Z,4.70
2023-02-09T04:38:22.453Z,4.80
2023-02-09T04:39:22.489Z,4.50
2023-02-09T04:40:22.438Z,4.60
2023-02-09T04:41:22.445Z,4.50
2023-02-09T04:42:22.428Z,4.50
2023-02-09T04:43:22.406Z,4.40
2023-02-09T04:44:22.402Z,4.80
2023-02-09T04:45:22.391Z,4.70
2023-02-09T04:46:22.372Z,4.10
2023-02-09T04:47:22.388Z,4.40
2023-02-09T04:48:22.369Z,4.80
2023-02-09T04:49:22.353Z,4.20
2023-02-09T04:50:22.330Z,8.00
2023-02-09T04:51:22.340Z,5.00
2023-02-09T04:52:22.338Z,4.10
2023-02-09T04:53:22.323Z,4.30
2023-02-09T04:54:22.305Z,4.10
2023-02-09T04:55:22.310Z,4.20
2023-02-09T04:56:22.272Z,4.50
2023-02-09T04:57:22.281Z,4.20
2023-02-09T04:58:22.257Z,5.10
2023-02-09T04:59:22.302Z,3.90
2023-02-09T05:00:22.230Z,4.40
2023-02-09T05:01:22.352Z,4.90
2023-02-09T05:02:22.218Z,4.70
2023-02-09T05:03:24.617Z,4.50
2023-02-09T05:04:22.208Z,4.10
2023-02-09T05:05:22.193Z,3.80
2023-02-09T05:06:22.197Z,5.20
2023-02-09T05:07:22.192Z,5.00
2023-02-09T05:08:22.228Z,4.20
2023-02-09T05:09:22.227Z,4.30
2023-02-09T05:10:22.141Z,3.70
2023-02-09T05:11:23.372Z,4.20
2023-02-09T05:12:22.127Z,4.40
2023-02-09T05:13:22.146Z,4.60
2023-02-09T05:14:22.119Z,3.80
2023-02-09T05:15:22.088Z,5.00
2023-02-09T05:16:22.106Z,4.40
2023-02-09T05:17:22.100Z,4.40
2023-02-09T05:18:22.056Z,4.90
2023-02-09T05:19:22.065Z,5.00
2023-02-09T05:20:22.036Z,4.30
2023-02-09T05:21:22.032Z,4.60
2023-02-09T05:22:22.030Z,5.20
2023-02-09T05:23:22.021Z,5.50
2023-02-09T05:24:22.020Z,3.90
2023-02-09T05:25:22.010Z,4.20
2023-02-09T05:26:21.995Z,4.40
2023-02-09T05:27:21.972Z,4.20
2023-02-09T05:28:22.051Z,4.70
2023-02-09T05:29:22.490Z,4.20
2023-02-09T05:30:21.962Z,4.50
2023-02-09T05:31:22.136Z,5.00
2023-02-09T05:32:21.981Z,4.50
2023-02-09T05:33:21.916Z,5.40
2023-02-09T05:34:21.928Z,4.20
2023-02-09T05:35:21.897Z,4.80
2023-02-09T05:36:21.895Z,4.30
2023-02-09T05:37:21.878Z,4.90
2023-02-09T05:38:21.861Z,4.40
2023-02-09T05:39:21.869Z,4.30
2023-02-09T05:40:21.844Z,4.60
2023-02-09T05:41:21.836Z,5.00
2023-02-09T05:42:21.826Z,4.30
2023-02-09T05:43:21.837Z,4.40
2023-02-09T05:44:21.840Z,4.60
2023-02-09T05:45:21.795Z,4.10
2023-02-09T05:46:21.788Z,4.20
2023-02-09T05:47:21.792Z,4.90
2023-02-09T05:48:21.763Z,5.80
2023-02-09T05:49:21.840Z,4.50
2023-02-09T05:50:21.852Z,4.30
2023-02-09T05:51:21.735Z,4.50
2023-02-09T05:52:21.726Z,5.10
2023-02-09T05:53:21.715Z,4.60
2023-02-09T05:54:21.763Z,4.40
2023-02-09T05:55:21.709Z,4.30
2023-02-09T05:56:21.685Z,4.70
2023-02-09T05:57:21.671Z,4.20
2023-02-09T05:58:21.662Z,4.30
2023-02-09T05:59:21.652Z,4.00
2023-02-09T06:00:21.684Z,4.10
2023-02-09T06:01:21.633Z,4.30
2023-02-09T06:02:21.653Z,4.30
2023-02-09T06:03:21.643Z,4.80
2023-02-09T06:04:21.550Z,4.60
2023-02-09T06:05:21.624Z,4.90
2023-02-09T06:06:21.575Z,4.60
2023-02-09T06:07:21.544Z,4.00
2023-02-09T06:08:21.502Z,5.40
2023-02-09T06:09:21.504Z,4.00
2023-02-09T06:10:21.499Z,5.00
2023-02-09T06:11:21.512Z,5.20
2023-02-09T06:12:21.498Z,5.00
2023-02-09T06:13:27.503Z,4.90
2023-02-09T06:14:21.471Z,4.80
2023-02-09T06:15:21.455Z,4.40
2023-02-09T06:16:21.433Z,5.40
2023-02-09T06:17:21.442Z,4.80
2023-02-09T06:18:21.433Z,4.30
2023-02-09T06:19:21.463Z,5.10
2023-02-09T06:20:21.393Z,5.30
2023-02-09T06:21:21.394Z,6.10
2023-02-09T06:22:21.427Z,4.60
2023-02-09T06:23:21.420Z,4.70
2023-02-09T06:24:21.356Z,4.90
2023-02-09T06:25:21.344Z,5.30
2023-02-09T06:26:21.342Z,4.50
2023-02-09T06:27:21.338Z,4.30
2023-02-09T06:28:21.435Z,5.60
2023-02-09T06:29:21.374Z,4.80
2023-02-09T06:30:21.290Z,5.40
2023-02-09T06:31:21.352Z,4.90
2023-02-09T06:32:21.287Z,5.20
2023-02-09T06:33:21.261Z,5.00
2023-02-09T06:34:21.271Z,5.20
2023-02-09T06:35:21.324Z,5.50
2023-02-09T06:36:21.246Z,4.70
2023-02-09T06:37:21.217Z,4.90
2023-02-09T06:38:21.211Z,5.10
2023-02-09T06:39:21.244Z,4.80
2023-02-09T06:40:21.203Z,4.60
2023-02-09T06:41:21.207Z,5.10
2023-02-09T06:42:21.200Z,5.00
2023-02-09T06:43:21.171Z,4.50
2023-02-09T06:44:21.604Z,5.00
2023-02-09T06:45:21.175Z,5.50
2023-02-09T06:46:21.206Z,5.10
2023-02-09T06:47:21.138Z,5.50
2023-02-09T06:48:22.021Z,4.50
2023-02-09T06:49:21.130Z,5.00
2023-02-09T06:50:21.103Z,5.40
2023-02-09T06:51:21.088Z,5.30
2023-02-09T06:52:21.371Z,4.90
2023-02-09T06:53:21.117Z,5.10
2023-02-09T06:54:21.151Z,5.00
2023-02-09T06:55:21.052Z,4.90
2023-02-09T06:56:21.028Z,5.40
2023-02-09T06:57:21.034Z,5.30
2023-02-09T06:58:21.064Z,4.80
2023-02-09T06:59:21.107Z,5.20
2023-02-09T07:00:21.003Z,4.90
2023-02-09T07:01:20.997Z,5.20
2023-02-09T07:02:20.981Z,5.50
2023-02-09T07:03:22.295Z,5.40
2023-02-09T07:04:20.979Z,5.20
2023-02-09T07:05:21.002Z,5.90
2023-02-09T07:06:21.294Z,5.10
2023-02-09T07:07:20.962Z,5.10
2023-02-09T07:08:20.915Z,6.00
2023-02-09T07:09:20.915Z,5.40
2023-02-09T07:10:21.538Z,6.00
2023-02-09T07:11:20.886Z,6.10
2023-02-09T07:12:20.996Z,5.10
2023-02-09T07:13:20.878Z,5.40
2023-02-09T07:14:20.865Z,4.70
2023-02-09T07:15:20.848Z,5.20
2023-02-09T07:16:20.933Z,5.10
2023-02-09T07:17:20.840Z,5.20
2023-02-09T07:18:20.843Z,5.50
2023-02-09T07:19:21.151Z,5.10
2023-02-09T07:20:20.803Z,5.80
2023-02-09T07:21:20.818Z,5.50
2023-02-09T07:22:20.797Z,4.60
2023-02-09T07:23:20.770Z,5.50
2023-02-09T07:24:20.775Z,6.20
2023-02-09T07:25:20.757Z,5.60
2023-02-09T07:26:20.740Z,4.80
2023-02-09T07:27:20.736Z,5.30
2023-02-09T07:28:20.898Z,5.00
2023-02-09T07:29:20.756Z,5.60
2023-02-09T07:30:20.848Z,4.70
2023-02-09T07:31:20.872Z,5.30
2023-02-09T07:32:20.690Z,5.00
2023-02-09T07:33:20.701Z,5.30
2023-02-09T07:34:20.678Z,5.20
2023-02-09T07:35:20.658Z,5.10
2023-02-09T07:36:20.661Z,5.30
2023-02-09T07:37:20.622Z,5.40
2023-02-09T07:38:20.636Z,5.10
2023-02-09T07:39:20.672Z,4.70
2023-02-09T07:40:20.612Z,5.30
2023-02-09T07:41:20.622Z,5.40
2023-02-09T07:42:23.038Z,6.00
2023-02-09T07:43:20.817Z,5.50
2023-02-09T07:44:20.609Z,5.50
2023-02-09T07:45:20.539Z,5.40
2023-02-09T07:46:20.628Z,5.90
2023-02-09T07:47:20.518Z,4.40
2023-02-09T07:48:20.526Z,5.10
2023-02-09T07:49:20.519Z,5.20
2023-02-09T07:50:20.728Z,4.80
2023-02-09T07:51:20.497Z,5.40
2023-02-09T07:52:20.492Z,5.60
2023-02-09T07:53:20.680Z,5.30
2023-02-09T07:54:28.983Z,5.90
2023-02-09T07:55:20.438Z,5.40
2023-02-09T07:56:20.430Z,5.20
2023-02-09T07:57:20.436Z,5.40
2023-02-09T07:58:20.406Z,5.40
2023-02-09T07:59:20.529Z,5.90
2023-02-09T08:00:20.434Z,5.80
2023-02-09T08:01:20.462Z,5.40
2023-02-09T08:02:20.365Z,6.30
2023-02-09T08:03:20.368Z,5.30
2023-02-09T08:04:20.392Z,5.60
2023-02-09T08:05:20.431Z,4.90
2023-02-09T08:06:21.795Z,5.50
2023-02-09T08:07:20.415Z,5.10
2023-02-09T08:08:20.393Z,5.60
2023-02-09T08:09:20.338Z,5.60
2023-02-09T08:10:20.320Z,4.60
2023-02-09T08:11:20.415Z,5.20
2023-02-09T08:12:20.342Z,5.50
2023-02-09T08:13:20.513Z,4.70
2023-02-09T08:14:20.263Z,5.30
2023-02-09T08:15:20.286Z,5.00
2023-02-09T08:16:20.384Z,4.90
2023-02-09T08:17:20.521Z,5.50
2023-02-09T08:18:20.205Z,5.20
2023-02-09T08:19:20.200Z,5.30
2023-02-09T08:20:20.258Z,4.60
2023-02-09T08:21:20.201Z,5.00
2023-02-09T08:22:20.177Z,5.50
2023-02-09T08:23:20.156Z,5.10
2023-02-09T08:24:20.153Z,5.10
2023-02-09T08:25:20.182Z,5.20
2023-02-09T08:26:20.118Z,4.80
2023-02-09T08:27:20.186Z,5.20
2023-02-09T08:28:20.678Z,4.50
2023-02-09T08:29:20.108Z,5.30
2023-02-09T08:30:20.130Z,5.30
2023-02-09T08:31:20.232Z,6.00
2023-02-09T08:32:20.071Z,4.90
2023-02-09T08:33:20.072Z,5.50
2023-02-09T08:34:20.102Z,4.90
2023-02-09T08:35:20.065Z,5.00
2023-02-09T08:36:20.036Z,4.90
2023-02-09T08:37:20.018Z,5.50
2023-02-09T08:38:20.039Z,4.60
2023-02-09T08:39:20.030Z,5.30
2023-02-09T08:40:20.014Z,5.10
2023-02-09T08:41:19.997Z,4.80
2023-02-09T08:42:19.992Z,5.70
2023-02-09T08:43:19.976Z,4.50
2023-02-09T08:44:19.956Z,4.50
2023-02-09T08:45:19.974Z,4.90
2023-02-09T08:46:20.077Z,5.30
2023-02-09T08:47:19.921Z,5.30
2023-02-09T08:48:19.975Z,4.50
2023-02-09T08:49:19.899Z,5.20
2023-02-09T08:50:19.905Z,4.80
2023-02-09T08:51:19.912Z,4.70
2023-02-09T08:52:19.888Z,5.30
2023-02-09T08:53:19.856Z,4.90
2023-02-09T08:54:19.953Z,5.30
2023-02-09T08:55:19.871Z,5.10
2023-02-09T08:56:19.827Z,5.30
2023-02-09T08:57:19.828Z,5.00
2023-02-09T08:58:19.814Z,5.40
2023-02-09T08:59:20.260Z,5.00
2023-02-09T09:00:19.826Z,4.50
2023-02-09T09:01:19.878Z,5.20
2023-02-09T09:02:19.794Z,5.20
2023-02-09T09:03:19.760Z,4.80
2023-02-09T09:04:19.836Z,4.80
2023-02-09T09:05:19.823Z,5.00
2023-02-09T09:06:19.762Z,4.70
2023-02-09T09:07:19.734Z,4.50
2023-02-09T09:08:19.735Z,4.70
2023-02-09T09:09:19.688Z,4.70
2023-02-09T09:10:19.697Z,4.40
2023-02-09T09:11:19.673Z,5.00
2023-02-09T09:12:19.833Z,4.60
2023-02-09T09:13:19.661Z,5.10
2023-02-09T09:14:19.793Z,4.60
2023-02-09T09:15:19.708Z,5.60
2023-02-09T09:16:19.656Z,4.50
2023-02-09T09:17:19.652Z,4.50
2023-02-09T09:18:19.640Z,4.90
2023-02-09T09:19:19.622Z,4.50
2023-02-09T09:20:19.951Z,5.60
2023-02-09T09:21:19.593Z,4.60
2023-02-09T09:22:19.583Z,5.10
2023-02-09T09:23:19.753Z,5.40
2023-02-09T09:24:19.576Z,4.10
2023-02-09T09:25:19.596Z,4.20
2023-02-09T09:26:19.548Z,4.40
2023-02-09T09:27:20.054Z,5.20
2023-02-09T09:28:19.563Z,4.50
2023-02-09T09:29:19.497Z,5.20
2023-02-09T09:30:19.498Z,4.20
2023-02-09T09:31:19.758Z,5.60
2023-02-09T09:32:19.641Z,5.10
2023-02-09T09:33:19.487Z,4.50
2023-02-09T09:34:19.478Z,4.40
2023-02-09T09:35:19.603Z,4.90
2023-02-09T09:36:19.430Z,4.50
2023-02-09T09:37:19.435Z,4.20
2023-02-09T09:38:19.412Z,4.30
2023-02-09T09:39:19.393Z,4.00
2023-02-09T09:40:19.435Z,5.00
2023-02-09T09:41:19.382Z,4.20
2023-02-09T09:42:19.398Z,4.60
2023-02-09T09:43:19.518Z,4.50
2023-02-09T09:44:19.407Z,4.40
2023-02-09T09:45:19.351Z,4.30
2023-02-09T09:46:19.455Z,4.30
2023-02-09T09:47:19.383Z,4.10
2023-02-09T09:48:19.340Z,4.70
2023-02-09T09:49:19.312Z,4.90
2023-02-09T09:50:19.309Z,5.00
2023-02-09T09:51:19.313Z,4.40
2023-02-09T09:52:19.277Z,4.10
2023-02-09T09:53:19.272Z,4.30
2023-02-09T09:54:19.243Z,4.60
2023-02-09T09:55:19.277Z,4.60
2023-02-09T09:56:19.216Z,4.30
2023-02-09T09:57:19.209Z,4.10
2023-02-09T09:58:19.192Z,3.70
2023-02-09T09:59:19.237Z,3.80
2023-02-09T10:00:19.207Z,4.30
2023-02-09T10:01:19.278Z,4.50
2023-02-09T10:02:20.503Z,3.70
2023-02-09T10:03:19.443Z,4.40
2023-02-09T10:04:19.240Z,4.70
2023-02-09T10:05:19.126Z,4.50
2023-02-09T10:06:19.400Z,4.20
2023-02-09T10:07:20.422Z,4.20
2023-02-09T10:08:19.084Z,4.20
2023-02-09T10:09:19.219Z,3.60
2023-02-09T10:10:19.262Z,4.10
2023-02-09T10:11:19.054Z,3.60
2023-02-09T10:12:19.062Z,4.80
2023-02-09T10:13:19.103Z,3.90
2023-02-09T10:14:19.145Z,3.60
2023-02-09T10:15:19.093Z,3.70
2023-02-09T10:16:19.116Z,4.20
2023-02-09T10:17:19.002Z,4.10
2023-02-09T10:18:18.982Z,4.10
2023-02-09T10:19:18.973Z,4.10
2023-02-09T10:20:19.031Z,4.00
2023-02-09T10:21:18.977Z,4.50
2023-02-09T10:22:18.947Z,4.00
2023-02-09T10:23:19.150Z,4.00
2023-02-09T10:24:18.923Z,4.80
2023-02-09T10:25:18.931Z,4.30
2023-02-09T10:26:18.924Z,4.00
2023-02-09T10:27:18.895Z,4.30
2023-02-09T10:28:18.948Z,4.00
2023-02-09T10:29:18.895Z,4.10
2023-02-09T10:30:19.055Z,3.60
2023-02-09T10:31:19.738Z,4.20
2023-02-09T10:32:18.834Z,4.00
2023-02-09T10:33:18.833Z,4.60
2023-02-09T10:34:18.817Z,4.30
2023-02-09T10:35:18.802Z,4.60
2023-02-09T10:36:18.812Z,4.20
2023-02-09T10:37:18.820Z,3.90
2023-02-09T10:38:18.855Z,4.00
2023-02-09T10:39:23.183Z,4.40
2023-02-09T10:40:18.927Z,3.70
2023-02-09T10:41:18.737Z,4.40
2023-02-09T10:42:18.729Z,3.90
2023-02-09T10:43:18.711Z,3.50
2023-02-09T10:44:18.780Z,3.10
2023-02-09T10:45:18.709Z,4.60
2023-02-09T10:46:18.718Z,3.40
2023-02-09T10:47:18.689Z,4.00
2023-02-09T10:48:18.723Z,3.70
2023-02-09T10:49:18.675Z,4.60
2023-02-09T10:50:18.650Z,4.50
2023-02-09T10:51:18.667Z,5.00
2023-02-09T10:52:18.634Z,3.50
2023-02-09T10:53:18.625Z,3.90
2023-02-09T10:54:18.590Z,4.00
2023-02-09T10:55:18.640Z,3.70
2023-02-09T10:56:18.573Z,4.30
2023-02-09T10:57:18.574Z,4.00
2023-02-09T10:58:18.700Z,3.70
2023-02-09T10:59:18.594Z,3.90
2023-02-09T11:00:18.709Z,4.10
2023-02-09T11:01:18.581Z,3.40
2023-02-09T11:02:18.523Z,3.70
2023-02-09T11:03:18.525Z,3.60
2023-02-09T11:04:19.079Z,3.50
2023-02-09T11:05:18.493Z,3.50
2023-02-09T11:06:18.490Z,3.80
2023-02-09T11:07:20.268Z,3.70
2023-02-09T11:08:18.758Z,4.20
2023-02-09T11:09:18.494Z,3.80
2023-02-09T11:10:18.537Z,3.40
2023-02-09T11:11:18.474Z,3.70
2023-02-09T11:12:18.519Z,3.90
2023-02-09T11:13:18.453Z,4.00
2023-02-09T11:14:18.426Z,3.60
2023-02-09T11:15:18.481Z,3.60
2023-02-09T11:16:18.483Z,4.30
2023-02-09T11:17:18.401Z,3.60
2023-02-09T11:18:18.516Z,4.00
2023-02-09T11:19:18.394Z,3.80
2023-02-09T11:20:18.454Z,2.80
2023-02-09T11:21:19.199Z,3.60
2023-02-09T11:22:18.390Z,3.20
2023-02-09T11:23:18.354Z,3.50
2023-02-09T11:24:18.327Z,3.10
2023-02-09T11:25:18.412Z,3.70
2023-02-09T11:26:18.324Z,3.50
2023-02-09T11:27:18.324Z,3.90
2023-02-09T11:28:18.364Z,3.10
2023-02-09T11:29:18.297Z,3.00
2023-02-09T11:30:18.558Z,3.70
2023-02-09T11:31:18.433Z,3.30
2023-02-09T11:32:18.268Z,3.10
2023-02-09T11:33:18.243Z,3.00
2023-02-09T11:34:18.217Z,3.80
2023-02-09T11:35:18.232Z,3.60
2023-02-09T11:36:18.257Z,3.50
2023-02-09T11:37:18.168Z,2.90
2023-02-09T11:38:19.157Z,4.10
2023-02-09T11:39:18.286Z,3.10
2023-02-09T11:40:18.161Z,3.50
2023-02-09T11:41:19.769Z,3.10
2023-02-09T11:42:18.147Z,3.20
2023-02-09T11:43:18.320Z,3.90
2023-02-09T11:44:18.299Z,3.50
2023-02-09T11:45:18.117Z,3.70
2023-02-09T11:46:18.201Z,3.40
2023-02-09T11:47:18.199Z,3.30
2023-02-09T11:48:18.139Z,3.50
2023-02-09T11:49:18.067Z,3.00
2023-02-09T11:50:18.085Z,3.20
2023-02-09T11:51:18.089Z,4.00
2023-02-09T11:52:18.093Z,3.20
2023-02-09T11:53:18.014Z,3.10
2023-02-09T11:54:17.989Z,3.20
2023-02-09T11:55:17.970Z,3.50
2023-02-09T11:56:17.976Z,3.20
2023-02-09T11:57:17.945Z,3.70
2023-02-09T11:58:17.923Z,3.50
2023-02-09T11:59:17.935Z,3.20
2023-02-09T12:00:17.901Z,3.40
2023-02-09T12:01:18.295Z,3.50
2023-02-09T12:02:18.774Z,3.20
2023-02-09T12:03:17.971Z,3.60
2023-02-09T12:04:17.929Z,3.80
2023-02-09T12:05:17.878Z,3.50
2023-02-09T12:06:17.956Z,3.70
2023-02-09T12:07:17.957Z,3.40
2023-02-09T12:08:18.000Z,3.40
2023-02-09T12:09:17.833Z,3.70
2023-02-09T12:10:17.843Z,3.40
2023-02-09T12:11:17.925Z,3.30
2023-02-09T12:12:17.897Z,3.60
2023-02-09T12:13:17.804Z,3.20
2023-02-09T12:14:25.615Z,3.50
2023-02-09T12:15:17.751Z,3.90
2023-02-09T12:16:17.794Z,3.50
2023-02-09T12:17:17.719Z,3.20
2023-02-09T12:18:17.708Z,4.00
2023-02-09T12:19:17.712Z,3.50
2023-02-09T12:20:17.724Z,3.50
2023-02-09T12:21:17.697Z,3.30
2023-02-09T12:22:17.663Z,3.40
2023-02-09T12:23:17.654Z,3.40
2023-02-09T12:24:17.642Z,3.70
2023-02-09T12:25:17.650Z,3.30
2023-02-09T12:26:17.636Z,3.80
2023-02-09T12:27:17.637Z,4.40
2023-02-09T12:28:17.656Z,3.30
2023-02-09T12:29:17.585Z,3.50
2023-02-09T12:30:17.577Z,3.40
2023-02-09T12:31:17.730Z,4.00
2023-02-09T12:32:17.651Z,3.50
2023-02-09T12:33:17.565Z,3.40
2023-02-09T12:34:17.536Z,3.20
2023-02-09T12:35:17.519Z,3.90
2023-02-09T12:36:17.527Z,3.50
2023-02-09T12:37:17.520Z,3.90
2023-02-09T12:38:17.487Z,4.10
2023-02-09T12:39:23.867Z,4.10
2023-02-09T12:40:17.469Z,3.20
2023-02-09T12:41:17.488Z,3.40
2023-02-09T12:42:17.439Z,3.60
2023-02-09T12:43:17.438Z,3.50
2023-02-09T12:44:17.420Z,3.90
2023-02-09T12:45:17.426Z,3.80
2023-02-09T12:46:17.537Z,3.10
2023-02-09T12:47:17.383Z,3.60
2023-02-09T12:48:17.513Z,3.70
2023-02-09T12:49:17.395Z,3.50
2023-02-09T12:50:17.359Z,3.50
2023-02-09T12:51:17.369Z,4.10
2023-02-09T12:52:17.345Z,3.30
2023-02-09T12:53:17.324Z,3.80
2023-02-09T12:54:17.363Z,3.00
2023-02-09T12:55:17.299Z,3.20
2023-02-09T12:56:17.307Z,3.80
2023-02-09T12:57:17.409Z,3.80
2023-02-09T12:58:17.264Z,3.60
2023-02-09T12:59:17.270Z,3.30
2023-02-09T13:00:17.246Z,3.30
2023-02-09T13:01:17.341Z,3.50
2023-02-09T13:02:17.244Z,3.40
2023-02-09T13:03:17.220Z,4.10
2023-02-09T13:04:17.293Z,3.30
2023-02-09T13:05:17.197Z,3.80
2023-02-09T13:06:17.191Z,3.50
2023-02-09T13:07:17.192Z,3.50
2023-02-09T13:08:17.158Z,3.30
2023-02-09T13:09:17.156Z,3.10
2023-02-09T13:10:17.150Z,3.50
2023-02-09T13:11:17.150Z,3.80
2023-02-09T13:12:17.181Z,3.30
2023-02-09T13:13:17.172Z,3.50
2023-02-09T13:14:17.124Z,3.60
2023-02-09T13:15:17.103Z,2.80
2023-02-09T13:16:17.124Z,3.50
2023-02-09T13:17:17.098Z,3.40
2023-02-09T13:18:17.071Z,3.10